Time;durP1;ratioP1;P1;durP2;ratioP2;P2;SDS_P1;SDS_P2;PMS_P1;PMS_P2;Temp;Humidity;BMP_temperature;BMP_pressure;BME280_temperature;BME280_humidity;BME280_pressure;Samples;Min_cycle;Max_cycle;Signal;HPM_P1;HPM_P2
2023/06/05 00:00:14;;;;;;;7.20;2.80;;;;;;;14.71;40.19;101343.57;110730;1209;139365;-60
2023/06/05 00:02:40;;;;;;;5.50;3.20;;;;;;;14.69;40.35;101339.73;110959;1212;97678;-61
2023/06/05 00:05:08;;;;;;;7.20;2.90;;;;;;;14.67;40.43;101337.87;110796;1212;137907;-61
2023/06/05 00:07:34;;;;;;;9.60;3.50;;;;;;;14.65;40.54;101340.10;111021;1209;111031;-61
2023/06/05 00:10:00;;;;;;;6.90;4.00;;;;;;;14.63;40.45;101338.59;110772;1212;138527;-60
2023/06/05 00:12:25;;;;;;;8.50;2.90;;;;;;;14.60;40.63;101339.99;110874;1209;97536;-61
2023/06/05 00:14:50;;;;;;;8.40;3.00;;;;;;;14.57;40.59;101336.89;110893;1212;97655;-61
2023/06/05 00:17:16;;;;;;;8.10;3.30;;;;;;;14.52;40.65;101335.52;110790;1212;139795;-61
2023/06/05 00:19:41;;;;;;;11.70;3.80;;;;;;;14.46;40.78;101343.73;110894;1212;97725;-61
2023/06/05 00:22:07;;;;;;;6.10;3.50;;;;;;;14.37;40.90;101338.38;110759;1208;139620;-61
2023/06/05 00:24:32;;;;;;;10.20;3.90;;;;;;;14.25;41.16;101341.11;110974;1212;97698;-61
2023/06/05 00:26:57;;;;;;;7.00;3.40;;;;;;;14.18;41.41;101343.94;110894;1210;97620;-62
2023/06/05 00:29:23;;;;;;;8.80;3.90;;;;;;;14.12;41.49;101348.19;110753;1212;138882;-61
2023/06/05 00:31:48;;;;;;;7.10;3.30;;;;;;;14.02;41.64;101349.91;110960;1209;97635;-61
2023/06/05 00:34:14;;;;;;;6.50;3.00;;;;;;;13.95;41.75;101355.79;110809;1212;138243;-61
2023/06/05 00:36:40;;;;;;;8.20;3.10;;;;;;;13.91;41.98;101354.55;110929;1212;98139;-61
2023/06/05 00:39:06;;;;;;;8.90;3.40;;;;;;;13.90;42.18;101357.48;110817;1212;97722;-61
2023/06/05 00:41:31;;;;;;;7.30;3.20;;;;;;;13.89;42.26;101359.31;110762;1213;141691;-59
2023/06/05 00:43:57;;;;;;;8.30;3.00;;;;;;;13.88;42.26;101360.63;110884;1209;98258;-61
2023/06/05 00:46:23;;;;;;;13.20;3.00;;;;;;;13.86;42.47;101363.40;110778;1212;140239;-61
2023/06/05 00:48:50;;;;;;;5.00;2.80;;;;;;;13.83;42.46;101362.85;110839;1212;101091;-61
2023/06/05 00:51:16;;;;;;;7.20;2.90;;;;;;;13.78;42.44;101362.52;110883;1209;98933;-62
2023/06/05 00:53:43;;;;;;;9.50;4.00;;;;;;;13.71;42.66;101359.80;110879;1212;137890;-62
2023/06/05 00:56:09;;;;;;;8.70;2.80;;;;;;;13.68;42.70;101358.85;110807;1209;108316;-61
2023/06/05 00:58:34;;;;;;;6.50;3.30;;;;;;;13.67;42.76;101359.63;110750;1212;139644;-61
2023/06/05 01:01:03;;;;;;;8.50;3.50;;;;;;;13.65;42.80;101362.40;110926;1208;97561;-61
2023/06/05 01:03:33;;;;;;;9.60;2.80;;;;;;;13.61;42.90;101361.83;111075;1212;99998;-61
2023/06/05 01:06:05;;;;;;;5.40;2.80;;;;;;;13.59;43.08;101362.67;110791;1212;138856;-61
2023/06/05 01:08:44;;;;;;;5.20;3.00;;;;;;;13.55;43.09;101361.07;110836;1225;97678;-61
2023/06/05 01:11:19;;;;;;;3.90;2.30;;;;;;;13.52;43.15;101360.27;110925;1209;138415;-59
2023/06/05 01:14:02;;;;;;;6.40;2.70;;;;;;;13.49;43.27;101360.23;110936;1210;110870;-61
2023/06/05 01:16:32;;;;;;;7.10;2.40;;;;;;;13.45;43.36;101360.25;110841;1212;138906;-60
2023/06/05 01:19:02;;;;;;;6.00;2.20;;;;;;;13.42;43.44;101356.06;110875;1209;106223;-60
2023/06/05 01:21:32;;;;;;;4.80;2.30;;;;;;;13.40;43.64;101355.64;110876;1209;97624;-60
2023/06/05 01:23:58;;;;;;;5.30;2.70;;;;;;;13.35;43.62;101354.20;110819;1212;137819;-60
2023/06/05 01:26:30;;;;;;;6.00;2.40;;;;;;;13.34;43.65;101358.02;110851;1219;98004;-60
2023/06/05 01:28:57;;;;;;;10.00;2.70;;;;;;;13.32;43.75;101358.80;110832;1228;137947;-60
2023/06/05 01:31:26;;;;;;;4.20;2.10;;;;;;;13.31;43.74;101357.09;110863;1209;108260;-59
2023/06/05 01:34:07;;;;;;;3.50;2.30;;;;;;;13.29;43.67;101356.24;110859;1225;97341;-60
2023/06/05 01:36:33;;;;;;;7.50;2.40;;;;;;;13.28;43.89;101357.20;110908;1212;97624;-59
2023/06/05 01:38:59;;;;;;;6.90;2.30;;;;;;;13.29;43.85;101360.23;110863;1211;98558;-59
2023/06/05 01:41:26;;;;;;;5.80;2.80;;;;;;;13.29;43.96;101359.84;110749;1212;138031;-59
2023/06/05 01:43:53;;;;;;;5.10;2.30;;;;;;;13.27;44.03;101359.20;110853;1212;97648;-60
2023/06/05 01:46:21;;;;;;;6.20;2.30;;;;;;;13.23;44.03;101359.37;110964;1222;138769;-59
2023/06/05 01:48:46;;;;;;;7.20;2.00;;;;;;;13.21;44.23;101357.34;110884;1212;111539;-60
2023/06/05 01:51:12;;;;;;;6.00;2.60;;;;;;;13.19;44.29;101358.14;110869;1209;98186;-60
2023/06/05 01:53:38;;;;;;;7.80;3.30;;;;;;;13.18;44.28;101358.73;110876;1212;138409;-60
2023/06/05 01:56:04;;;;;;;11.70;3.10;;;;;;;13.14;44.28;101357.25;110798;1209;98806;-60
2023/06/05 01:58:29;;;;;;;7.60;2.70;;;;;;;13.07;44.54;101355.55;110811;1212;138414;-60
2023/06/05 02:00:56;;;;;;;8.90;2.90;;;;;;;13.00;44.64;101355.86;110973;1211;99021;-60
2023/06/05 02:03:23;;;;;;;5.40;2.80;;;;;;;12.93;44.65;101354.02;110878;1212;97610;-60
2023/06/05 02:05:49;;;;;;;4.30;2.50;;;;;;;12.86;44.89;101355.02;110734;1212;137957;-60
2023/06/05 02:08:19;;;;;;;4.70;2.60;;;;;;;12.82;45.08;101357.38;110871;1211;97649;-60
2023/06/05 02:10:48;;;;;;;7.60;2.50;;;;;;;12.80;45.22;101354.04;110684;1212;138873;-59
2023/06/05 02:13:15;;;;;;;5.60;2.90;;;;;;;12.76;45.31;101353.50;110922;1212;107956;-60
2023/06/05 02:15:41;;;;;;;9.50;2.80;;;;;;;12.72;45.46;101350.95;110909;1209;97654;-60
2023/06/05 02:18:07;;;;;;;11.30;2.70;;;;;;;12.69;45.41;101352.17;110871;1212;138864;-60
2023/06/05 02:20:34;;;;;;;6.80;2.50;;;;;;;12.63;45.59;101343.60;110997;1208;97576;-60
2023/06/05 02:23:00;;;;;;;11.50;2.50;;;;;;;12.60;45.57;101343.75;110862;1212;138443;-60
2023/06/05 02:25:28;;;;;;;10.10;2.40;;;;;;;12.56;45.73;101343.16;110966;1212;97676;-60
2023/06/05 02:27:54;;;;;;;4.50;2.40;;;;;;;12.52;45.80;101340.66;110906;1208;95981;-60
2023/06/05 02:30:20;;;;;;;5.90;2.50;;;;;;;12.49;46.00;101340.27;110897;1208;138899;-60
2023/06/05 02:32:46;;;;;;;3.50;2.50;;;;;;;12.46;45.95;101340.02;110893;1211;109046;-60
2023/06/05 02:35:11;;;;;;;7.70;2.80;;;;;;;12.45;46.11;101344.35;110829;1211;139153;-60
2023/06/05 02:37:43;;;;;;;6.70;3.00;;;;;;;12.44;46.16;101344.40;110985;1212;96387;-60
2023/06/05 02:40:09;;;;;;;6.60;2.80;;;;;;;12.40;46.21;101339.02;110738;1209;140097;-60
2023/06/05 02:42:35;;;;;;;4.20;2.20;;;;;;;12.38;46.33;101345.91;110922;1209;97673;-60
2023/06/05 02:45:01;;;;;;;4.20;2.40;;;;;;;12.35;46.46;101343.85;110860;1212;97710;-61
2023/06/05 02:47:26;;;;;;;5.40;2.20;;;;;;;12.33;46.45;101343.90;110875;1210;137997;-60
2023/06/05 02:49:51;;;;;;;8.70;2.30;;;;;;;12.34;46.58;101345.15;110893;1209;96543;-60
2023/06/05 02:52:16;;;;;;;6.60;2.80;;;;;;;12.34;46.64;101347.64;110820;1212;139004;-60
2023/06/05 02:54:42;;;;;;;6.80;2.00;;;;;;;12.32;46.70;101343.80;110966;1208;96472;-61
2023/06/05 02:57:08;;;;;;;6.90;2.80;;;;;;;12.29;46.66;101338.70;110951;1212;97739;-60
2023/06/05 02:59:39;;;;;;;11.50;3.50;;;;;;;12.26;46.91;101342.25;110747;1211;138758;-60
2023/06/05 03:02:05;;;;;;;;;;;;;;;12.22;47.02;101338.45;110876;1212;97789;-60
2023/06/05 03:04:30;;;;;;;10.60;2.80;;;;;;;12.18;46.92;101347.55;110897;1208;125141;-60
2023/06/05 03:06:56;;;;;;;8.90;2.90;;;;;;;12.13;47.08;101346.85;110989;1212;98039;-60
2023/06/05 03:09:22;;;;;;;6.30;2.60;;;;;;;12.08;47.05;101345.27;110932;1212;108049;-60
2023/06/05 03:11:47;;;;;;;5.40;3.30;;;;;;;12.06;47.22;101343.39;110724;1208;138787;-60
2023/06/05 03:14:12;;;;;;;8.70;3.10;;;;;;;12.03;47.34;101342.93;110998;1211;97590;-60
2023/06/05 03:16:41;;;;;;;6.90;2.80;;;;;;;12.02;47.47;101342.98;110848;1209;139002;-60
2023/06/05 03:19:08;;;;;;;5.30;2.40;;;;;;;12.04;47.44;101340.77;110852;1212;107951;-60
2023/06/05 03:21:35;;;;;;;6.90;3.00;;;;;;;12.04;47.53;101344.53;110945;1208;96438;-60
2023/06/05 03:24:01;;;;;;;10.50;2.50;;;;;;;12.04;47.59;101341.13;110939;1209;139947;-60
2023/06/05 03:26:26;;;;;;;8.20;2.90;;;;;;;12.05;47.70;101344.15;110864;1208;97606;-60
2023/06/05 03:28:52;;;;;;;4.50;2.50;;;;;;;12.05;47.77;101344.67;110898;1208;137937;-60
2023/06/05 03:31:18;;;;;;;9.70;3.10;;;;;;;12.05;47.82;101344.67;110908;1212;97727;-60
2023/06/05 03:33:44;;;;;;;7.70;3.20;;;;;;;12.05;47.93;101341.29;110931;1212;98388;-61
2023/06/05 03:36:09;;;;;;;8.60;3.20;;;;;;;12.05;48.02;101342.73;110807;1208;139723;-60
2023/06/05 03:38:34;;;;;;;5.30;3.20;;;;;;;12.05;48.16;101339.85;110849;1208;97732;-60
2023/06/05 03:40:59;;;;;;;11.90;3.00;;;;;;;12.04;48.21;101343.10;110803;1212;140256;-60
2023/06/05 03:43:24;;;;;;;6.60;3.30;;;;;;;12.03;48.15;101348.13;110888;1212;97606;-60
2023/06/05 03:45:51;;;;;;;11.30;4.00;;;;;;;12.03;48.45;101344.73;110924;1209;97571;-60
2023/06/05 03:48:20;;;;;;;4.60;2.70;;;;;;;12.03;48.54;101343.30;110765;1211;137782;-61
2023/06/05 03:50:46;;;;;;;10.90;4.00;;;;;;;12.04;48.71;101343.46;110966;1212;97699;-60
2023/06/05 03:53:13;;;;;;;9.00;3.30;;;;;;;12.05;48.63;101343.59;110825;1208;138047;-60
2023/06/05 03:55:41;;;;;;;5.80;2.70;;;;;;;12.09;48.84;101341.84;111056;1212;97716;-61
2023/06/05 03:58:15;;;;;;;8.90;3.40;;;;;;;12.13;48.84;101341.67;110717;1211;139486;-61
2023/06/05 04:00:45;;;;;;;8.40;3.10;;;;;;;12.19;48.86;101344.13;110868;1212;97816;-60
2023/06/05 04:03:12;;;;;;;8.80;3.30;;;;;;;12.25;48.87;101337.43;110935;1212;98345;-60
2023/06/05 04:05:38;;;;;;;8.80;2.80;;;;;;;12.30;48.93;101336.70;110754;1207;137798;-60
2023/06/05 04:08:04;;;;;;;4.80;2.50;;;;;;;12.37;48.84;101333.04;110938;1212;98033;-61
2023/06/05 04:10:30;;;;;;;5.50;2.80;;;;;;;12.45;48.95;101333.96;110814;1211;138646;-60
2023/06/05 04:12:55;;;;;;;13.00;4.10;;;;;;;12.50;48.97;101337.15;110987;1208;96494;-60
2023/06/05 04:15:23;;;;;;;6.00;3.10;;;;;;;12.56;49.05;101336.02;110868;1212;97609;-60
2023/06/05 04:17:49;;;;;;;6.20;2.70;;;;;;;12.61;49.04;101331.66;110893;1209;138603;-60
2023/06/05 04:20:14;;;;;;;7.40;3.20;;;;;;;12.67;49.05;101335.19;110892;1212;97701;-60
2023/06/05 04:22:40;;;;;;;6.60;2.70;;;;;;;12.74;48.93;101334.38;110908;1209;139757;-61
2023/06/05 04:25:06;;;;;;;6.40;3.00;;;;;;;12.82;48.96;101333.16;110990;1209;97597;-61
2023/06/05 04:27:31;;;;;;;7.30;3.10;;;;;;;12.88;48.95;101336.31;110940;1212;98122;-61
2023/06/05 04:29:57;;;;;;;7.80;3.20;;;;;;;12.94;48.93;101332.83;110798;1210;139561;-60
2023/06/05 04:32:22;;;;;;;7.90;3.30;;;;;;;13.00;48.94;101338.09;110889;1209;97631;-60
2023/06/05 04:34:48;;;;;;;13.30;3.80;;;;;;;13.07;48.92;101335.66;110908;1211;139827;-60
2023/06/05 04:37:13;;;;;;;11.10;2.80;;;;;;;13.12;48.80;101338.14;110914;1209;96577;-60
2023/06/05 04:39:38;;;;;;;5.00;3.10;;;;;;;13.16;48.86;101338.34;110885;1208;97616;-61
2023/06/05 04:42:04;;;;;;;9.80;3.20;;;;;;;13.20;48.81;101341.94;110866;1208;139849;-60
2023/06/05 04:44:30;;;;;;;6.40;3.40;;;;;;;13.22;48.84;101345.98;110884;1212;97650;-60
2023/06/05 04:46:55;;;;;;;13.70;3.50;;;;;;;13.23;48.90;101347.70;110822;1208;139838;-60
2023/06/05 04:49:22;;;;;;;6.50;3.10;;;;;;;13.27;48.88;101349.36;110963;1212;97651;-60
2023/06/05 04:51:48;;;;;;;10.60;3.30;;;;;;;13.29;48.84;101346.73;110771;1211;111015;-62
2023/06/05 04:54:14;;;;;;;13.80;3.30;;;;;;;13.32;48.96;101346.63;110812;1208;139892;-60
2023/06/05 04:56:40;;;;;;;6.50;3.80;;;;;;;13.37;48.97;101348.36;110995;1208;97630;-60
2023/06/05 04:59:06;;;;;;;14.50;4.60;;;;;;;13.44;48.94;101346.84;110783;1209;138389;-59
2023/06/05 05:01:32;;;;;;;9.30;3.40;;;;;;;13.51;48.97;101346.88;110813;1211;97661;-60
2023/06/05 05:03:59;;;;;;;8.40;3.40;;;;;;;13.58;49.00;101342.94;110889;1208;97539;-60
2023/06/05 05:06:25;;;;;;;10.30;3.40;;;;;;;13.65;48.90;101339.79;110709;1208;137660;-59
2023/06/05 05:08:50;;;;;;;11.70;3.40;;;;;;;13.73;48.81;101342.10;110748;1210;97610;-60
2023/06/05 05:11:17;;;;;;;11.80;3.60;;;;;;;13.80;48.76;101332.41;110705;1209;139681;-60
2023/06/05 05:13:43;;;;;;;12.70;3.90;;;;;;;13.86;48.82;101336.27;111030;1211;97585;-60
2023/06/05 05:16:09;;;;;;;16.80;4.40;;;;;;;13.93;48.81;101337.73;110715;1211;139450;-60
2023/06/05 05:18:36;;;;;;;13.10;4.00;;;;;;;14.00;48.75;101334.73;110819;1208;96469;-60
2023/06/05 05:21:02;;;;;;;10.20;3.90;;;;;;;14.09;48.69;101338.65;110883;1211;97622;-60
2023/06/05 05:23:28;;;;;;;18.60;3.70;;;;;;;14.15;48.68;101334.23;110823;1211;139761;-60
2023/06/05 05:25:54;;;;;;;11.90;3.60;;;;;;;14.24;48.71;101337.39;110848;1208;97755;-62
2023/06/05 05:28:19;;;;;;;9.70;3.70;;;;;;;14.33;48.65;101334.63;110756;1211;138647;-60
2023/06/05 05:30:45;;;;;;;6.20;3.20;;;;;;;14.42;48.60;101339.77;111081;1208;98096;-60
2023/06/05 05:33:10;;;;;;;12.60;4.00;;;;;;;14.49;48.51;101345.00;110777;1212;108011;-60
2023/06/05 05:35:35;;;;;;;13.00;4.20;;;;;;;14.58;48.55;101347.29;110717;1212;138266;-60
2023/06/05 05:38:01;;;;;;;10.10;3.70;;;;;;;14.69;48.52;101345.86;110915;1208;97601;-61
2023/06/05 05:40:26;;;;;;;9.70;3.10;;;;;;;14.77;48.43;101345.26;110651;1212;140017;-60
2023/06/05 05:42:52;;;;;;;12.90;3.50;;;;;;;14.85;48.42;101348.66;110825;1211;97723;-60
2023/06/05 05:45:17;;;;;;;14.80;3.90;;;;;;;14.90;48.40;101346.77;110785;1208;96843;-60
2023/06/05 05:47:42;;;;;;;6.70;3.90;;;;;;;14.97;48.40;101347.34;110699;1209;140501;-60
2023/06/05 05:50:08;;;;;;;10.90;3.10;;;;;;;15.04;48.34;101347.51;110840;1211;97849;-60
2023/06/05 05:52:33;;;;;;;14.80;3.90;;;;;;;15.12;48.34;101351.05;112995;1208;138734;-61
2023/06/05 05:54:59;;;;;;;14.70;3.60;;;;;;;15.20;48.29;101353.86;113156;1208;95703;-60
2023/06/05 05:57:25;;;;;;;11.00;3.00;;;;;;;15.30;48.25;101354.80;112919;1207;98420;-61
2023/06/05 05:59:50;;;;;;;10.70;3.00;;;;;;;15.43;48.08;101355.75;111387;1211;138882;-60
2023/06/05 06:02:16;;;;;;;18.70;3.30;;;;;;;15.52;48.01;101355.61;110844;1209;96499;-60
2023/06/05 06:04:43;;;;;;;11.60;2.50;;;;;;;15.63;47.99;101354.71;110897;1208;138910;-60
2023/06/05 06:07:09;;;;;;;5.10;2.30;;;;;;;15.74;47.69;101354.43;110729;1211;97718;-60
2023/06/05 06:09:35;;;;;;;15.10;2.80;;;;;;;15.84;47.63;101350.67;110831;1208;97568;-60
2023/06/05 06:12:05;;;;;;;20.70;2.20;;;;;;;15.93;47.37;101350.52;110705;1212;138578;-60
2023/06/05 06:14:31;;;;;;;10.70;2.10;;;;;;;16.03;47.22;101351.10;110765;1208;112082;-60
2023/06/05 06:16:57;;;;;;;7.40;2.40;;;;;;;16.12;47.12;101355.06;110736;1221;138504;-59
2023/06/05 06:19:23;;;;;;;8.20;2.00;;;;;;;16.24;46.94;101357.64;110756;1212;97675;-60
2023/06/05 06:21:51;;;;;;;4.60;2.30;;;;;;;16.36;46.67;101356.48;111058;1208;99224;-60
2023/06/05 06:24:19;;;;;;;6.30;1.80;;;;;;;16.44;46.47;101357.06;111051;1209;138533;-59
2023/06/05 06:26:45;;;;;;;9.30;2.50;;;;;;;16.52;46.23;101358.77;110813;1212;100316;-60
2023/06/05 06:29:13;;;;;;;10.40;2.50;;;;;;;16.61;46.26;101363.70;110913;1212;138707;-60
2023/06/05 06:31:38;;;;;;;10.50;1.80;;;;;;;16.75;45.89;101364.71;110933;1212;97927;-60
2023/06/05 06:34:04;;;;;;;21.30;2.80;;;;;;;16.86;45.82;101368.23;110820;1207;138422;-60
2023/06/05 06:36:30;;;;;;;18.10;2.70;;;;;;;16.94;45.46;101367.08;111008;1208;100124;-60
2023/06/05 06:38:55;;;;;;;10.50;2.60;;;;;;;17.02;45.37;101364.37;110887;1212;98650;-60
2023/06/05 06:41:21;;;;;;;16.40;2.20;;;;;;;17.11;45.18;101362.79;110928;1208;139990;-60
2023/06/05 06:43:46;;;;;;;5.60;2.00;;;;;;;17.20;44.99;101364.42;110889;1212;99880;-60
2023/06/05 06:46:11;;;;;;;9.40;1.90;;;;;;;17.31;44.94;101366.48;110673;1212;137901;-60
2023/06/05 06:48:37;;;;;;;10.50;1.80;;;;;;;17.44;44.54;101366.98;110810;1208;97288;-60
2023/06/05 06:51:03;;;;;;;6.80;1.60;;;;;;;17.49;44.41;101367.19;110633;1212;99434;-60
2023/06/05 06:53:28;;;;;;;8.60;1.90;;;;;;;17.55;44.11;101367.00;110903;1208;138666;-60
2023/06/05 06:55:54;;;;;;;5.60;1.90;;;;;;;17.62;43.90;101365.13;110910;1208;98237;-60
2023/06/05 06:58:19;;;;;;;9.10;1.80;;;;;;;17.72;43.88;101361.98;110794;1212;138667;-60
2023/06/05 07:00:44;;;;;;;12.50;2.90;;;;;;;17.81;43.56;101359.07;110842;1208;97463;-60
2023/06/05 07:03:10;;;;;;;10.10;2.20;;;;;;;17.92;43.31;101360.62;110713;1208;97678;-60
2023/06/05 07:05:35;;;;;;;4.40;1.70;;;;;;;18.02;43.16;101359.98;110819;1211;138062;-60
2023/06/05 07:08:00;;;;;;;10.20;1.50;;;;;;;18.13;42.99;101359.21;110859;1208;99497;-60
2023/06/05 07:10:29;;;;;;;11.30;2.40;;;;;;;18.23;42.93;101359.17;110730;1211;139509;-60
2023/06/05 07:12:55;;;;;;;5.30;2.00;;;;;;;18.31;42.70;101360.95;110826;1219;97614;-62
2023/06/05 07:15:21;;;;;;;5.20;1.70;;;;;;;18.38;42.72;101362.66;110804;1208;98970;-63
2023/06/05 07:17:46;;;;;;;6.40;1.90;;;;;;;18.46;42.44;101360.36;110635;1212;138852;-62
2023/06/05 07:20:12;;;;;;;9.30;1.80;;;;;;;18.53;42.30;101361.35;110801;1212;98071;-64
2023/06/05 07:22:43;;;;;;;6.00;1.50;;;;;;;18.62;42.24;101360.80;110774;1208;138580;-62
2023/06/05 07:25:09;;;;;;;3.30;1.30;;;;;;;18.69;41.91;101363.20;110667;1217;97933;-62
2023/06/05 07:27:35;;;;;;;6.20;1.70;;;;;;;18.77;41.89;101360.34;110830;1211;97723;-62
2023/06/05 07:30:01;;;;;;;3.50;1.90;;;;;;;18.87;41.68;101364.89;111007;1208;139343;-62
2023/06/05 07:32:27;;;;;;;2.30;1.40;;;;;;;18.98;41.38;101361.84;110906;1211;97722;-60
2023/06/05 07:34:52;;;;;;;8.50;1.80;;;;;;;19.06;41.33;101363.83;110619;1208;138448;-59
2023/06/05 07:37:17;;;;;;;9.60;1.70;;;;;;;19.14;41.18;101366.31;110777;1211;97820;-59
2023/06/05 07:39:42;;;;;;;6.60;3.10;;;;;;;19.22;41.16;101364.17;110854;1208;98386;-60
2023/06/05 07:42:08;;;;;;;7.70;2.20;;;;;;;19.30;40.98;101363.66;110611;1209;140772;-60
2023/06/05 07:44:33;;;;;;;8.00;1.50;;;;;;;19.35;40.86;101362.70;110905;1212;98864;-60
2023/06/05 07:46:58;;;;;;;5.80;1.40;;;;;;;19.41;40.80;101359.94;110762;1211;138172;-59
2023/06/05 07:49:24;;;;;;;6.60;1.50;;;;;;;19.49;40.62;101360.33;110961;1208;97736;-60
2023/06/05 07:51:50;;;;;;;20.10;2.10;;;;;;;19.58;40.40;101360.60;110907;1212;97704;-59
2023/06/05 07:54:16;;;;;;;11.70;1.80;;;;;;;19.66;40.30;101355.19;110748;1207;138740;-59
2023/06/05 07:56:42;;;;;;;3.90;1.20;;;;;;;19.73;40.07;101357.05;110922;1211;98932;-59
2023/06/05 07:59:07;;;;;;;11.90;1.90;;;;;;;19.83;39.95;101357.60;110740;1208;138372;-60
2023/06/05 08:01:36;;;;;;;3.50;1.00;;;;;;;19.93;39.79;101356.73;110840;1208;97765;-59
2023/06/05 08:04:07;;;;;;;4.10;1.20;;;;;;;19.94;39.47;101352.44;110809;1208;137977;-59
2023/06/05 08:06:32;;;;;;;;;;;;;;;19.95;39.16;101353.98;111003;1212;102727;-60
2023/06/05 08:08:59;;;;;;;5.20;1.40;;;;;;;20.02;39.01;101353.89;110865;1208;98152;-61
2023/06/05 08:11:24;;;;;;;1.70;1.20;;;;;;;20.10;38.77;101349.88;110820;1211;138577;-59
2023/06/05 08:13:50;;;;;;;4.60;2.10;;;;;;;20.15;38.54;101351.71;110903;1208;97665;-59
2023/06/05 08:16:15;;;;;;;6.00;1.80;;;;;;;20.18;38.34;101350.19;110835;1208;140429;-59
2023/06/05 08:18:42;;;;;;;4.10;1.50;;;;;;;20.23;38.22;101350.77;110977;1208;96484;-59
2023/06/05 08:21:07;;;;;;;3.60;1.30;;;;;;;20.28;38.07;101352.55;110739;1220;97922;-59
2023/06/05 08:23:33;;;;;;;4.60;1.20;;;;;;;20.31;37.86;101347.02;110697;1211;139425;-59
2023/06/05 08:25:58;;;;;;;10.40;1.50;;;;;;;20.35;37.77;101343.27;110974;1219;97601;-59
2023/06/05 08:28:23;;;;;;;4.50;1.70;;;;;;;20.45;37.62;101344.09;110693;1211;140373;-59
2023/06/05 08:30:49;;;;;;;3.70;1.50;;;;;;;20.56;37.36;101347.61;110874;1211;97680;-59
2023/06/05 08:33:14;;;;;;;1.50;1.00;;;;;;;20.66;37.07;101350.48;110846;1209;103033;-59
2023/06/05 08:35:41;;;;;;;6.50;1.80;;;;;;;20.75;37.00;101352.70;110771;1208;138343;-59
2023/06/05 08:38:06;;;;;;;8.70;1.10;;;;;;;20.81;36.58;101351.16;110806;1212;97693;-60
2023/06/05 08:40:33;;;;;;;10.90;1.90;;;;;;;20.84;36.42;101351.69;110712;1212;139404;-60
2023/06/05 08:43:03;;;;;;;3.10;1.50;;;;;;;20.89;36.36;101346.55;110772;1208;97398;-60
2023/06/05 08:45:31;;;;;;;12.00;1.80;;;;;;;20.94;36.28;101343.40;110915;1208;97345;-60
2023/06/05 08:48:00;;;;;;;2.90;1.70;;;;;;;21.05;36.10;101349.13;110764;1212;138107;-61
2023/06/05 08:50:29;;;;;;;4.90;1.40;;;;;;;21.14;35.92;101352.14;110884;1223;97965;-59
2023/06/05 08:52:59;;;;;;;5.40;1.50;;;;;;;21.19;35.57;101349.22;110793;1212;140007;-59
2023/06/05 08:55:26;;;;;;;2.90;1.40;;;;;;;21.22;35.31;101346.61;110809;1208;102915;-60
2023/06/05 08:57:52;;;;;;;3.80;1.10;;;;;;;21.25;35.30;101343.08;110941;1208;98126;-59
2023/06/05 09:00:18;;;;;;;2.80;1.20;;;;;;;21.30;35.12;101338.56;110744;1222;137691;-59
2023/06/05 09:02:43;;;;;;;4.90;1.50;;;;;;;21.35;35.08;101337.41;110921;1211;97745;-59
2023/06/05 09:05:09;;;;;;;4.90;1.60;;;;;;;21.43;34.91;101341.70;110707;1208;142027;-60
2023/06/05 09:07:36;;;;;;;3.30;1.20;;;;;;;21.50;34.62;101341.85;110909;1212;97732;-60
2023/06/05 09:10:03;;;;;;;3.60;1.20;;;;;;;21.54;34.42;101342.10;110676;1208;138039;-59
2023/06/05 09:12:28;;;;;;;3.70;1.30;;;;;;;21.53;34.30;101336.49;111029;1212;97610;-59
2023/06/05 09:14:53;;;;;;;5.20;1.50;;;;;;;21.53;34.34;101339.10;110875;1212;97588;-59
2023/06/05 09:17:21;;;;;;;6.70;1.10;;;;;;;21.58;34.40;101337.95;110746;1209;138040;-59
2023/06/05 09:19:47;;;;;;;5.40;1.90;;;;;;;21.67;34.11;101338.47;111052;1211;97801;-60
2023/06/05 09:22:13;;;;;;;5.80;1.70;;;;;;;21.77;34.00;101337.22;110797;1212;138998;-59
2023/06/05 09:24:40;;;;;;;4.20;1.50;;;;;;;21.82;33.91;101334.95;110885;1224;103337;-59
2023/06/05 09:27:16;;;;;;;4.30;1.50;;;;;;;21.88;33.90;101326.89;111006;1211;98103;-59
2023/06/05 09:29:43;;;;;;;5.00;1.70;;;;;;;21.92;33.74;101321.77;110779;1216;138726;-59
2023/06/05 09:32:15;;;;;;;1.80;1.30;;;;;;;21.98;33.57;101327.48;110847;1208;97637;-59
2023/06/05 09:34:40;;;;;;;3.20;1.60;;;;;;;22.02;33.34;101325.68;110821;1209;140305;-59
2023/06/05 09:37:10;;;;;;;2.90;1.20;;;;;;;22.06;33.42;101325.20;110847;1208;97606;-59
2023/06/05 09:39:49;;;;;;;3.20;1.30;;;;;;;22.12;33.05;101324.95;110909;1212;97760;-60
2023/06/05 09:42:15;;;;;;;8.40;1.40;;;;;;;22.17;33.01;101321.98;110764;1209;139610;-59
2023/06/05 09:44:40;;;;;;;4.10;1.30;;;;;;;22.22;32.86;101318.08;110829;1212;97585;-59
2023/06/05 09:47:08;;;;;;;5.90;1.20;;;;;;;22.30;32.69;101320.38;110809;1211;137939;-59
2023/06/05 09:49:39;;;;;;;3.10;1.50;;;;;;;22.36;32.51;101321.89;110961;1212;100699;-59
2023/06/05 09:52:07;;;;;;;1.90;1.00;;;;;;;22.39;32.59;101319.83;110704;1212;138273;-59
2023/06/05 09:54:32;;;;;;;3.30;1.10;;;;;;;22.39;32.31;101317.11;110888;1212;99757;-59
2023/06/05 09:57:04;;;;;;;2.00;1.30;;;;;;;22.41;32.19;101315.25;110876;1208;98251;-59
2023/06/05 09:59:32;;;;;;;2.20;1.30;;;;;;;22.44;32.08;101315.08;110824;1208;139960;-60
2023/06/05 10:02:01;;;;;;;2.70;1.00;;;;;;;22.47;32.10;101308.09;111008;1212;97584;-59
2023/06/05 10:04:29;;;;;;;7.10;1.30;;;;;;;22.49;31.96;101304.21;110764;1208;137996;-59
2023/06/05 10:06:59;;;;;;;4.80;1.60;;;;;;;22.56;31.87;101306.88;110776;1211;97803;-60
2023/06/05 10:09:25;;;;;;;;;;;;;;;22.66;31.98;101300.45;110916;1211;97702;-59
2023/06/05 10:11:51;;;;;;;11.50;1.60;;;;;;;22.73;31.83;101292.92;110733;1211;124452;-59
2023/06/05 10:14:19;;;;;;;1.70;1.10;;;;;;;22.81;31.77;101291.51;110944;1208;97815;-59
2023/06/05 10:16:50;;;;;;;4.30;1.60;;;;;;;22.87;31.79;101290.45;110778;1209;138588;-60
2023/06/05 10:19:18;;;;;;;6.70;1.90;;;;;;;22.90;31.63;101287.67;111102;1208;97666;-60
2023/06/05 10:21:46;;;;;;;5.00;1.40;;;;;;;22.94;31.56;101288.21;110999;1212;102495;-60
2023/06/05 10:24:15;;;;;;;13.40;2.80;;;;;;;23.01;31.30;101288.35;110738;1211;138677;-59
2023/06/05 10:27:09;;;;;;;9.70;2.00;;;;;;;23.12;31.01;101284.34;110748;1212;99467;-59
2023/06/05 10:29:41;;;;;;;4.50;1.80;;;;;;;23.23;30.92;101284.30;110715;1211;138752;-59
2023/06/05 10:32:36;;;;;;;5.80;1.60;;;;;;;23.27;30.63;101280.10;110772;1213;97697;-60
2023/06/05 10:35:20;;;;;;;2.60;1.20;;;;;;;23.32;30.56;101278.60;110690;1219;140922;-59
2023/06/05 10:38:25;;;;;;;1.80;1.20;;;;;;;23.37;30.53;101276.73;110897;1208;97619;-60
2023/06/05 10:40:55;;;;;;;1.90;1.10;;;;;;;23.53;30.42;101278.60;110512;1213;137971;-60
2023/06/05 10:43:36;;;;;;;2.00;1.40;;;;;;;23.56;30.08;101279.23;110968;1223;99699;-59
2023/06/05 10:46:22;;;;;;;2.00;1.40;;;;;;;23.55;30.09;101276.54;110876;1212;97537;-59
2023/06/05 10:49:08;;;;;;;5.00;2.00;;;;;;;23.65;30.02;101272.42;110941;1208;103052;-59
2023/06/05 10:51:53;;;;;;;8.00;2.40;;;;;;;23.77;29.85;101268.42;110856;1208;99880;-60
2023/06/05 10:54:21;;;;;;;4.20;1.50;;;;;;;23.69;29.27;101261.30;110808;1207;138866;-60
2023/06/05 10:57:03;;;;;;;5.10;1.40;;;;;;;23.63;29.44;101261.27;110744;1212;98185;-60
2023/06/05 10:59:30;;;;;;;4.20;1.70;;;;;;;23.75;29.50;101255.13;110766;1208;138328;-61
2023/06/05 11:02:08;;;;;;;3.40;1.30;;;;;;;23.92;29.41;101251.20;110761;1208;102999;-60
2023/06/05 11:04:46;;;;;;;2.40;1.70;;;;;;;24.09;29.32;101253.42;110747;1212;138170;-60
2023/06/05 11:07:20;;;;;;;5.00;2.40;;;;;;;24.23;29.24;101253.31;110784;1223;100626;-59
2023/06/05 11:10:06;;;;;;;6.00;2.00;;;;;;;24.32;29.21;101254.14;110916;1214;97658;-59
2023/06/05 11:12:34;;;;;;;4.00;1.50;;;;;;;24.40;29.33;101253.38;110902;1212;97683;-60